sensor_id;sensor_type;location;lat;lon;timestamp;temperature;humidity
2495;DHT22;1258;48.336;14.322;2023-12-20T00:00:23;0.10;99.90
2495;DHT22;1258;48.336;14.322;2023-12-20T00:02:50;0.10;99.90
2495;DHT22;1258;48.336;14.322;2023-12-20T00:05:17;0.00;99.90
2495;DHT22;1258;48.336;14.322;2023-12-20T00:07:43;-0.10;99.90
2495;DHT22;1258;48.336;14.322;2023-12-20T00:10:10;-0.10;99.90
2495;DHT22;1258;48.336;14.322;2023-12-20T00:12:38;-0.10;99.90
2495;DHT22;1258;48.336;14.322;2023-12-20T00:15:08;-0.20;99.90
2495;DHT22;1258;48.336;14.322;2023-12-20T00:17:35;-0.20;99.90
2495;DHT22;1258;48.336;14.322;2023-12-20T00:20:02;-0.30;99.90
2495;DHT22;1258;48.336;14.322;2023-12-20T00:22:29;-0.40;99.90
2495;DHT22;1258;48.336;14.322;2023-12-20T00:24:55;-0.40;99.90
2495;DHT22;1258;48.336;14.322;2023-12-20T00:27:22;-0.50;99.90
2495;DHT22;1258;48.336;14.322;2023-12-20T00:29:49;-0.60;99.90
2495;DHT22;1258;48.336;14.322;2023-12-20T00:32:18;-0.60;99.90
2495;DHT22;1258;48.336;14.322;2023-12-20T00:34:46;-0.60;99.90
2495;DHT22;1258;48.336;14.322;2023-12-20T00:37:13;-0.70;99.90
2495;DHT22;1258;48.336;14.322;2023-12-20T00:39:40;-0.60;99.90
2495;DHT22;1258;48.336;14.322;2023-12-20T00:42:07;-0.70;99.90
2495;DHT22;1258;48.336;14.322;2023-12-20T00:44:33;-0.80;99.90
2495;DHT22;1258;48.336;14.322;2023-12-20T00:47:00;-0.80;99.90
2495;DHT22;1258;48.336;14.322;2023-12-20T00:49:29;-0.90;99.90
2495;DHT22;1258;48.336;14.322;2023-12-20T00:51:55;-0.90;99.90
2495;DHT22;1258;48.336;14.322;2023-12-20T00:54:22;-1.10;99.90
2495;DHT22;1258;48.336;14.322;2023-12-20T00:56:49;-1.20;99.90
2495;DHT22;1258;48.336;14.322;2023-12-20T00:59:16;-1.40;99.90
2495;DHT22;1258;48.336;14.322;2023-12-20T01:01:44;-1.40;99.90
2495;DHT22;1258;48.336;14.322;2023-12-20T01:04:11;-1.60;99.90
2495;DHT22;1258;48.336;14.322;2023-12-20T01:06:39;-1.70;99.90
2495;DHT22;1258;48.336;14.322;2023-12-20T01:09:06;-1.80;99.90
2495;DHT22;1258;48.336;14.322;2023-12-20T01:11:33;-1.80;99.90
2495;DHT22;1258;48.336;14.322;2023-12-20T01:13:59;-1.80;99.90
2495;DHT22;1258;48.336;14.322;2023-12-20T01:16:26;-1.90;99.90
2495;DHT22;1258;48.336;14.322;2023-12-20T01:18:53;-1.90;99.90
2495;DHT22;1258;48.336;14.322;2023-12-20T01:21:20;-1.90;99.90
2495;DHT22;1258;48.336;14.322;2023-12-20T01:23:49;-2.00;99.90
2495;DHT22;1258;48.336;14.322;2023-12-20T01:26:15;-2.10;99.90
2495;DHT22;1258;48.336;14.322;2023-12-20T01:28:42;-2.20;99.90
2495;DHT22;1258;48.336;14.322;2023-12-20T01:31:09;-2.20;99.90
2495;DHT22;1258;48.336;14.322;2023-12-20T01:33:36;-2.20;99.90
2495;DHT22;1258;48.336;14.322;2023-12-20T01:36:04;-2.30;99.90
2495;DHT22;1258;48.336;14.322;2023-12-20T01:38:31;-2.30;99.90
2495;DHT22;1258;48.336;14.322;2023-12-20T01:41:00;-2.30;99.90
2495;DHT22;1258;48.336;14.322;2023-12-20T01:43:26;-2.20;99.90
2495;DHT22;1258;48.336;14.322;2023-12-20T01:45:55;-2.10;99.90
2495;DHT22;1258;48.336;14.322;2023-12-20T01:48:22;-2.00;99.90
2495;DHT22;1258;48.336;14.322;2023-12-20T01:50:50;-1.90;99.90
2495;DHT22;1258;48.336;14.322;2023-12-20T01:53:18;-1.80;99.90
2495;DHT22;1258;48.336;14.322;2023-12-20T01:55:46;-1.70;99.90
2495;DHT22;1258;48.336;14.322;2023-12-20T01:58:15;-1.50;99.90
2495;DHT22;1258;48.336;14.322;2023-12-20T02:00:43;-1.40;99.90
2495;DHT22;1258;48.336;14.322;2023-12-20T02:03:11;-1.40;99.90
2495;DHT22;1258;48.336;14.322;2023-12-20T02:05:39;-1.30;99.90
2495;DHT22;1258;48.336;14.322;2023-12-20T02:08:06;-1.20;99.90
2495;DHT22;1258;48.336;14.322;2023-12-20T02:10:34;-1.10;99.90
2495;DHT22;1258;48.336;14.322;2023-12-20T02:13:01;-1.10;99.90
2495;DHT22;1258;48.336;14.322;2023-12-20T02:15:29;-1.10;99.90
2495;DHT22;1258;48.336;14.322;2023-12-20T02:17:56;-1.10;99.90
2495;DHT22;1258;48.336;14.322;2023-12-20T02:20:23;-1.20;99.90
2495;DHT22;1258;48.336;14.322;2023-12-20T02:22:51;-1.10;99.90
2495;DHT22;1258;48.336;14.322;2023-12-20T02:25:18;-1.10;99.90
2495;DHT22;1258;48.336;14.322;2023-12-20T02:27:45;-1.10;99.90
2495;DHT22;1258;48.336;14.322;2023-12-20T02:30:12;-1.00;99.90
2495;DHT22;1258;48.336;14.322;2023-12-20T02:32:39;-0.90;99.90
2495;DHT22;1258;48.336;14.322;2023-12-20T02:35:06;-0.90;99.90
2495;DHT22;1258;48.336;14.322;2023-12-20T02:37:33;-0.80;99.90
2495;DHT22;1258;48.336;14.322;2023-12-20T02:40:02;-0.80;99.90
2495;DHT22;1258;48.336;14.322;2023-12-20T02:42:30;-0.70;99.90
2495;DHT22;1258;48.336;14.322;2023-12-20T02:44:56;-0.70;99.90
2495;DHT22;1258;48.336;14.322;2023-12-20T02:47:23;-0.60;99.90
2495;DHT22;1258;48.336;14.322;2023-12-20T02:49:50;-0.60;99.90
2495;DHT22;1258;48.336;14.322;2023-12-20T02:52:18;-0.60;99.90
2495;DHT22;1258;48.336;14.322;2023-12-20T02:54:45;-0.50;99.90
2495;DHT22;1258;48.336;14.322;2023-12-20T02:57:13;-0.50;99.90
2495;DHT22;1258;48.336;14.322;2023-12-20T02:59:40;-0.50;99.90
2495;DHT22;1258;48.336;14.322;2023-12-20T03:02:07;-0.40;99.90
2495;DHT22;1258;48.336;14.322;2023-12-20T03:04:34;-0.40;99.90
2495;DHT22;1258;48.336;14.322;2023-12-20T03:07:01;-0.30;99.90
2495;DHT22;1258;48.336;14.322;2023-12-20T03:09:27;-0.20;99.90
2495;DHT22;1258;48.336;14.322;2023-12-20T03:11:54;-0.20;99.90
2495;DHT22;1258;48.336;14.322;2023-12-20T03:14:22;-0.10;99.90
2495;DHT22;1258;48.336;14.322;2023-12-20T03:16:50;-0.10;99.90
2495;DHT22;1258;48.336;14.322;2023-12-20T03:19:17;-0.10;99.90
2495;DHT22;1258;48.336;14.322;2023-12-20T03:21:45;-0.10;99.90
2495;DHT22;1258;48.336;14.322;2023-12-20T03:24:12;-0.10;99.90
2495;DHT22;1258;48.336;14.322;2023-12-20T03:26:39;-0.10;99.90
2495;DHT22;1258;48.336;14.322;2023-12-20T03:29:05;-0.10;99.90
2495;DHT22;1258;48.336;14.322;2023-12-20T03:31:34;-0.10;99.90
2495;DHT22;1258;48.336;14.322;2023-12-20T03:34:01;0.10;99.90
2495;DHT22;1258;48.336;14.322;2023-12-20T03:36:27;0.10;99.90
2495;DHT22;1258;48.336;14.322;2023-12-20T03:38:54;0.00;99.90
2495;DHT22;1258;48.336;14.322;2023-12-20T03:41:21;0.00;99.90
2495;DHT22;1258;48.336;14.322;2023-12-20T03:43:48;0.00;99.90
2495;DHT22;1258;48.336;14.322;2023-12-20T03:46:15;0.10;99.90
2495;DHT22;1258;48.336;14.322;2023-12-20T03:48:43;0.00;99.90
2495;DHT22;1258;48.336;14.322;2023-12-20T03:51:10;0.00;99.90
2495;DHT22;1258;48.336;14.322;2023-12-20T03:53:37;0.00;99.90
2495;DHT22;1258;48.336;14.322;2023-12-20T03:56:06;0.00;99.90
2495;DHT22;1258;48.336;14.322;2023-12-20T03:58:33;0.00;99.90
2495;DHT22;1258;48.336;14.322;2023-12-20T04:01:00;0.00;99.90
2495;DHT22;1258;48.336;14.322;2023-12-20T04:03:28;0.00;99.90
2495;DHT22;1258;48.336;14.322;2023-12-20T04:05:56;0.00;99.90
2495;DHT22;1258;48.336;14.322;2023-12-20T04:08:23;-0.10;99.90
2495;DHT22;1258;48.336;14.322;2023-12-20T04:10:50;-0.20;99.90
2495;DHT22;1258;48.336;14.322;2023-12-20T04:13:17;-0.20;99.90
2495;DHT22;1258;48.336;14.322;2023-12-20T04:15:44;-0.30;99.90
2495;DHT22;1258;48.336;14.322;2023-12-20T04:18:10;-0.40;99.90
2495;DHT22;1258;48.336;14.322;2023-12-20T04:20:37;-0.30;99.90
2495;DHT22;1258;48.336;14.322;2023-12-20T04:23:05;-0.30;99.90
2495;DHT22;1258;48.336;14.322;2023-12-20T04:25:32;-0.40;99.90
2495;DHT22;1258;48.336;14.322;2023-12-20T04:27:59;-0.40;99.90
2495;DHT22;1258;48.336;14.322;2023-12-20T04:30:26;-0.40;99.90
2495;DHT22;1258;48.336;14.322;2023-12-20T04:32:53;-0.30;99.90
2495;DHT22;1258;48.336;14.322;2023-12-20T04:35:20;-0.30;99.90
2495;DHT22;1258;48.336;14.322;2023-12-20T04:37:47;-0.20;99.90
2495;DHT22;1258;48.336;14.322;2023-12-20T04:40:16;-0.10;99.90
2495;DHT22;1258;48.336;14.322;2023-12-20T04:42:43;-0.10;99.90
2495;DHT22;1258;48.336;14.322;2023-12-20T04:45:10;-0.10;99.90
2495;DHT22;1258;48.336;14.322;2023-12-20T04:47:38;0.10;99.90
2495;DHT22;1258;48.336;14.322;2023-12-20T04:50:06;0.00;99.90
2495;DHT22;1258;48.336;14.322;2023-12-20T04:52:33;0.00;99.90
2495;DHT22;1258;48.336;14.322;2023-12-20T04:55:00;0.00;99.90
2495;DHT22;1258;48.336;14.322;2023-12-20T04:57:29;0.10;99.90
2495;DHT22;1258;48.336;14.322;2023-12-20T04:59:56;0.10;99.90
2495;DHT22;1258;48.336;14.322;2023-12-20T05:02:23;0.10;99.90
2495;DHT22;1258;48.336;14.322;2023-12-20T05:04:50;0.10;99.90
2495;DHT22;1258;48.336;14.322;2023-12-20T05:07:16;0.10;99.90
2495;DHT22;1258;48.336;14.322;2023-12-20T05:09:43;0.20;99.90
2495;DHT22;1258;48.336;14.322;2023-12-20T05:12:10;0.20;99.90
2495;DHT22;1258;48.336;14.322;2023-12-20T05:14:38;0.20;99.90
2495;DHT22;1258;48.336;14.322;2023-12-20T05:17:05;0.20;99.90
2495;DHT22;1258;48.336;14.322;2023-12-20T05:19:32;0.20;99.90
2495;DHT22;1258;48.336;14.322;2023-12-20T05:22:00;0.30;99.90
2495;DHT22;1258;48.336;14.322;2023-12-20T05:24:27;0.20;99.90
2495;DHT22;1258;48.336;14.322;2023-12-20T05:26:54;0.30;99.90
2495;DHT22;1258;48.336;14.322;2023-12-20T05:29:21;0.20;99.90
2495;DHT22;1258;48.336;14.322;2023-12-20T05:31:50;0.30;99.90
2495;DHT22;1258;48.336;14.322;2023-12-20T05:34:17;0.20;99.90
2495;DHT22;1258;48.336;14.322;2023-12-20T05:36:44;0.20;99.90
2495;DHT22;1258;48.336;14.322;2023-12-20T05:39:10;0.20;99.90
2495;DHT22;1258;48.336;14.322;2023-12-20T05:41:37;0.30;99.90
2495;DHT22;1258;48.336;14.322;2023-12-20T05:44:04;0.20;99.90
2495;DHT22;1258;48.336;14.322;2023-12-20T05:46:31;0.20;99.90
2495;DHT22;1258;48.336;14.322;2023-12-20T05:48:59;0.10;99.90
2495;DHT22;1258;48.336;14.322;2023-12-20T05:51:26;0.10;99.90
2495;DHT22;1258;48.336;14.322;2023-12-20T05:53:53;0.10;99.90
2495;DHT22;1258;48.336;14.322;2023-12-20T05:56:20;0.10;99.90
2495;DHT22;1258;48.336;14.322;2023-12-20T05:58:47;0.10;99.90
2495;DHT22;1258;48.336;14.322;2023-12-20T06:01:14;0.00;99.90
2495;DHT22;1258;48.336;14.322;2023-12-20T06:03:42;0.00;99.90
2495;DHT22;1258;48.336;14.322;2023-12-20T06:06:11;-0.10;99.90
2495;DHT22;1258;48.336;14.322;2023-12-20T06:08:38;-0.30;99.90
2495;DHT22;1258;48.336;14.322;2023-12-20T06:11:05;-0.20;99.90
2495;DHT22;1258;48.336;14.322;2023-12-20T06:13:32;-0.30;99.90
2495;DHT22;1258;48.336;14.322;2023-12-20T06:15:59;-0.40;99.90
2495;DHT22;1258;48.336;14.322;2023-12-20T06:18:26;-0.40;99.90
2495;DHT22;1258;48.336;14.322;2023-12-20T06:20:53;-0.40;99.90
2495;DHT22;1258;48.336;14.322;2023-12-20T06:23:21;-0.40;99.90
2495;DHT22;1258;48.336;14.322;2023-12-20T06:25:48;-0.40;99.90
2495;DHT22;1258;48.336;14.322;2023-12-20T06:28:15;-0.40;99.90
2495;DHT22;1258;48.336;14.322;2023-12-20T06:30:42;-0.40;99.90
2495;DHT22;1258;48.336;14.322;2023-12-20T06:33:09;-0.40;99.90
2495;DHT22;1258;48.336;14.322;2023-12-20T06:35:37;-0.50;99.90
2495;DHT22;1258;48.336;14.322;2023-12-20T06:38:04;-0.50;99.90
2495;DHT22;1258;48.336;14.322;2023-12-20T06:40:32;-0.50;99.90
2495;DHT22;1258;48.336;14.322;2023-12-20T06:42:59;-0.60;99.90
2495;DHT22;1258;48.336;14.322;2023-12-20T06:45:26;-0.60;99.90
2495;DHT22;1258;48.336;14.322;2023-12-20T06:47:53;-0.60;99.90
2495;DHT22;1258;48.336;14.322;2023-12-20T06:50:20;-0.60;99.90
2495;DHT22;1258;48.336;14.322;2023-12-20T06:52:47;-0.70;99.90
2495;DHT22;1258;48.336;14.322;2023-12-20T06:55:14;-0.70;99.90
2495;DHT22;1258;48.336;14.322;2023-12-20T06:57:44;-0.70;99.90
2495;DHT22;1258;48.336;14.322;2023-12-20T07:00:12;-0.80;99.90
2495;DHT22;1258;48.336;14.322;2023-12-20T14:37:00;-1.20;99.90
2495;DHT22;1258;48.336;14.322;2023-12-20T14:39:27;-0.90;99.90
2495;DHT22;1258;48.336;14.322;2023-12-20T14:41:54;-0.80;99.90
2495;DHT22;1258;48.336;14.322;2023-12-20T14:44:21;-0.80;99.90
2495;DHT22;1258;48.336;14.322;2023-12-20T14:46:48;-0.80;99.90
2495;DHT22;1258;48.336;14.322;2023-12-20T14:49:15;-0.90;99.90
2495;DHT22;1258;48.336;14.322;2023-12-20T14:51:44;-0.80;99.90
2495;DHT22;1258;48.336;14.322;2023-12-20T14:54:14;-0.80;99.90
2495;DHT22;1258;48.336;14.322;2023-12-20T14:56:41;-0.90;99.90
2495;DHT22;1258;48.336;14.322;2023-12-20T14:59:08;-0.90;99.90
2495;DHT22;1258;48.336;14.322;2023-12-20T15:01:35;-1.00;99.90
2495;DHT22;1258;48.336;14.322;2023-12-20T15:04:02;-1.00;99.90
2495;DHT22;1258;48.336;14.322;2023-12-20T15:06:29;-1.00;99.90
2495;DHT22;1258;48.336;14.322;2023-12-20T15:08:57;-1.00;99.90
2495;DHT22;1258;48.336;14.322;2023-12-20T15:11:25;-1.00;99.90
2495;DHT22;1258;48.336;14.322;2023-12-20T15:13:52;-1.10;99.90
2495;DHT22;1258;48.336;14.322;2023-12-20T15:16:21;-1.00;99.90
2495;DHT22;1258;48.336;14.322;2023-12-20T15:18:48;-1.10;99.90
2495;DHT22;1258;48.336;14.322;2023-12-20T15:21:16;-1.20;99.90
2495;DHT22;1258;48.336;14.322;2023-12-20T15:23:43;-1.20;99.90
2495;DHT22;1258;48.336;14.322;2023-12-20T15:26:18;-1.10;99.90
2495;DHT22;1258;48.336;14.322;2023-12-20T15:28:47;-1.20;99.90
2495;DHT22;1258;48.336;14.322;2023-12-20T15:31:13;-1.20;99.90
2495;DHT22;1258;48.336;14.322;2023-12-20T15:33:40;-1.20;99.90
2495;DHT22;1258;48.336;14.322;2023-12-20T15:36:07;-1.30;99.90
2495;DHT22;1258;48.336;14.322;2023-12-20T15:38:34;-1.30;99.90
2495;DHT22;1258;48.336;14.322;2023-12-20T15:41:01;-1.30;99.90
2495;DHT22;1258;48.336;14.322;2023-12-20T15:43:28;-1.30;99.90
2495;DHT22;1258;48.336;14.322;2023-12-20T15:45:56;-1.30;99.90
2495;DHT22;1258;48.336;14.322;2023-12-20T15:48:23;-1.40;99.90
2495;DHT22;1258;48.336;14.322;2023-12-20T15:50:55;-1.30;99.90
2495;DHT22;1258;48.336;14.322;2023-12-20T15:53:22;-1.30;99.90
2495;DHT22;1258;48.336;14.322;2023-12-20T15:55:49;-1.30;99.90
2495;DHT22;1258;48.336;14.322;2023-12-20T15:58:16;-1.30;99.90
2495;DHT22;1258;48.336;14.322;2023-12-20T16:00:43;-1.40;99.90
2495;DHT22;1258;48.336;14.322;2023-12-20T16:03:12;-1.40;99.90
2495;DHT22;1258;48.336;14.322;2023-12-20T16:05:38;-1.30;99.90
2495;DHT22;1258;48.336;14.322;2023-12-20T16:08:06;-1.30;99.90
2495;DHT22;1258;48.336;14.322;2023-12-20T16:10:33;-1.30;99.90
2495;DHT22;1258;48.336;14.322;2023-12-20T16:13:00;-1.30;99.90
2495;DHT22;1258;48.336;14.322;2023-12-20T16:15:26;-1.40;99.90
2495;DHT22;1258;48.336;14.322;2023-12-20T16:17:53;-1.40;99.90
2495;DHT22;1258;48.336;14.322;2023-12-20T16:20:22;-1.40;99.90
2495;DHT22;1258;48.336;14.322;2023-12-20T16:22:48;-1.30;99.90
2495;DHT22;1258;48.336;14.322;2023-12-20T16:25:16;-1.30;99.90
2495;DHT22;1258;48.336;14.322;2023-12-20T16:27:43;-1.30;99.90
2495;DHT22;1258;48.336;14.322;2023-12-20T16:30:10;-1.30;99.90
2495;DHT22;1258;48.336;14.322;2023-12-20T16:32:37;-1.20;99.90
2495;DHT22;1258;48.336;14.322;2023-12-20T16:35:04;-1.30;99.90
2495;DHT22;1258;48.336;14.322;2023-12-20T16:37:33;-1.30;99.90
2495;DHT22;1258;48.336;14.322;2023-12-20T16:40:03;-1.30;99.90
2495;DHT22;1258;48.336;14.322;2023-12-20T16:42:30;-1.30;99.90
2495;DHT22;1258;48.336;14.322;2023-12-20T16:44:57;-1.30;99.90
2495;DHT22;1258;48.336;14.322;2023-12-20T16:47:24;-1.30;99.90
2495;DHT22;1258;48.336;14.322;2023-12-20T16:49:51;-1.30;99.90
2495;DHT22;1258;48.336;14.322;2023-12-20T16:52:18;-1.40;99.90
2495;DHT22;1258;48.336;14.322;2023-12-20T16:54:46;-1.40;99.90
2495;DHT22;1258;48.336;14.322;2023-12-20T16:57:13;-1.50;99.90
2495;DHT22;1258;48.336;14.322;2023-12-20T16:59:42;-1.50;99.90
2495;DHT22;1258;48.336;14.322;2023-12-20T17:02:09;-1.50;99.90
2495;DHT22;1258;48.336;14.322;2023-12-20T17:04:37;-1.50;99.90
2495;DHT22;1258;48.336;14.322;2023-12-20T17:07:04;-1.50;99.90
2495;DHT22;1258;48.336;14.322;2023-12-20T17:09:30;-1.50;99.90
2495;DHT22;1258;48.336;14.322;2023-12-20T17:11:59;-1.50;99.90
2495;DHT22;1258;48.336;14.322;2023-12-20T17:14:26;-1.40;99.90
2495;DHT22;1258;48.336;14.322;2023-12-20T17:16:53;-1.50;99.90
2495;DHT22;1258;48.336;14.322;2023-12-20T17:19:20;-1.50;99.90
2495;DHT22;1258;48.336;14.322;2023-12-20T17:21:49;-1.50;99.90
2495;DHT22;1258;48.336;14.322;2023-12-20T17:24:16;-1.50;99.90
2495;DHT22;1258;48.336;14.322;2023-12-20T17:26:43;-1.50;99.90
2495;DHT22;1258;48.336;14.322;2023-12-20T17:29:11;-1.50;99.90
2495;DHT22;1258;48.336;14.322;2023-12-20T17:31:38;-1.50;99.90
2495;DHT22;1258;48.336;14.322;2023-12-20T17:34:07;-1.50;99.90
2495;DHT22;1258;48.336;14.322;2023-12-20T17:36:36;-1.60;99.90
2495;DHT22;1258;48.336;14.322;2023-12-20T17:39:03;-1.60;99.90
2495;DHT22;1258;48.336;14.322;2023-12-20T17:41:30;-1.60;99.90
2495;DHT22;1258;48.336;14.322;2023-12-20T17:43:58;-1.50;99.90
2495;DHT22;1258;48.336;14.322;2023-12-20T17:46:26;-1.50;99.90
2495;DHT22;1258;48.336;14.322;2023-12-20T17:48:53;-1.50;99.90
2495;DHT22;1258;48.336;14.322;2023-12-20T17:51:21;-1.50;99.90
2495;DHT22;1258;48.336;14.322;2023-12-20T17:53:48;-1.40;99.90
2495;DHT22;1258;48.336;14.322;2023-12-20T17:56:15;-1.30;99.90
2495;DHT22;1258;48.336;14.322;2023-12-20T17:58:43;-1.30;99.90
2495;DHT22;1258;48.336;14.322;2023-12-20T18:01:10;-1.20;99.90
2495;DHT22;1258;48.336;14.322;2023-12-20T18:03:41;-1.20;99.90
2495;DHT22;1258;48.336;14.322;2023-12-20T18:06:08;-1.20;99.90
2495;DHT22;1258;48.336;14.322;2023-12-20T18:08:35;-1.20;99.90
2495;DHT22;1258;48.336;14.322;2023-12-20T18:11:02;-1.10;99.90
2495;DHT22;1258;48.336;14.322;2023-12-20T18:13:29;-1.20;99.90
2495;DHT22;1258;48.336;14.322;2023-12-20T18:15:56;-1.20;99.90
2495;DHT22;1258;48.336;14.322;2023-12-20T18:18:23;-1.20;99.90
2495;DHT22;1258;48.336;14.322;2023-12-20T18:20:52;-1.20;99.90
2495;DHT22;1258;48.336;14.322;2023-12-20T18:23:19;-1.20;99.90
2495;DHT22;1258;48.336;14.322;2023-12-20T18:25:46;-1.30;99.90
2495;DHT22;1258;48.336;14.322;2023-12-20T18:28:14;-1.40;99.90
2495;DHT22;1258;48.336;14.322;2023-12-20T18:30:40;-1.40;99.90
2495;DHT22;1258;48.336;14.322;2023-12-20T18:33:07;-1.40;99.90
2495;DHT22;1258;48.336;14.322;2023-12-20T18:35:34;-1.40;99.90
2495;DHT22;1258;48.336;14.322;2023-12-20T18:38:04;-1.40;99.90
2495;DHT22;1258;48.336;14.322;2023-12-20T18:40:31;-1.50;99.90
2495;DHT22;1258;48.336;14.322;2023-12-20T18:42:58;-1.50;99.90
2495;DHT22;1258;48.336;14.322;2023-12-20T18:45:25;-1.40;99.90
2495;DHT22;1258;48.336;14.322;2023-12-20T18:47:52;-1.60;99.90
2495;DHT22;1258;48.336;14.322;2023-12-20T18:50:20;-1.60;99.90
2495;DHT22;1258;48.336;14.322;2023-12-20T18:52:47;-1.60;99.90
2495;DHT22;1258;48.336;14.322;2023-12-20T18:55:15;-1.70;99.90
2495;DHT22;1258;48.336;14.322;2023-12-20T18:57:42;-1.70;99.90
2495;DHT22;1258;48.336;14.322;2023-12-20T19:00:12;-1.70;99.90
2495;DHT22;1258;48.336;14.322;2023-12-20T19:02:39;-1.70;99.90
2495;DHT22;1258;48.336;14.322;2023-12-20T19:05:07;-1.80;99.90
2495;DHT22;1258;48.336;14.322;2023-12-20T19:07:34;-1.80;99.90
2495;DHT22;1258;48.336;14.322;2023-12-20T19:10:01;-1.70;99.90
2495;DHT22;1258;48.336;14.322;2023-12-20T19:12:29;-1.70;99.90
2495;DHT22;1258;48.336;14.322;2023-12-20T19:14:56;-1.70;99.90
2495;DHT22;1258;48.336;14.322;2023-12-20T19:17:23;-1.80;99.90
2495;DHT22;1258;48.336;14.322;2023-12-20T19:19:51;-1.70;99.90
2495;DHT22;1258;48.336;14.322;2023-12-20T19:22:17;-1.70;99.90
2495;DHT22;1258;48.336;14.322;2023-12-20T19:24:44;-1.70;99.90
2495;DHT22;1258;48.336;14.322;2023-12-20T19:27:11;-1.80;99.90
2495;DHT22;1258;48.336;14.322;2023-12-20T19:29:39;-1.80;99.90
2495;DHT22;1258;48.336;14.322;2023-12-20T19:32:06;-1.80;99.90
2495;DHT22;1258;48.336;14.322;2023-12-20T19:34:33;-1.70;99.90
2495;DHT22;1258;48.336;14.322;2023-12-20T19:37:00;-1.70;99.90
2495;DHT22;1258;48.336;14.322;2023-12-20T19:39:27;-1.70;99.90
2495;DHT22;1258;48.336;14.322;2023-12-20T19:41:54;-1.60;99.90
2495;DHT22;1258;48.336;14.322;2023-12-20T19:44:20;-1.70;99.90
2495;DHT22;1258;48.336;14.322;2023-12-20T19:46:49;-1.70;99.90
2495;DHT22;1258;48.336;14.322;2023-12-20T19:49:19;-1.60;99.90
2495;DHT22;1258;48.336;14.322;2023-12-20T19:51:46;-1.70;99.90
2495;DHT22;1258;48.336;14.322;2023-12-20T19:54:13;-1.70;99.90
2495;DHT22;1258;48.336;14.322;2023-12-20T19:56:40;-1.70;99.90
2495;DHT22;1258;48.336;14.322;2023-12-20T19:59:07;-1.60;99.90
2495;DHT22;1258;48.336;14.322;2023-12-20T20:01:34;-1.60;99.90
2495;DHT22;1258;48.336;14.322;2023-12-20T20:04:08;-1.60;99.90
2495;DHT22;1258;48.336;14.322;2023-12-20T20:06:35;-1.50;99.90
2495;DHT22;1258;48.336;14.322;2023-12-20T20:09:02;-1.50;99.90
2495;DHT22;1258;48.336;14.322;2023-12-20T20:11:30;-1.50;99.90
2495;DHT22;1258;48.336;14.322;2023-12-20T20:13:57;-1.50;99.90
2495;DHT22;1258;48.336;14.322;2023-12-20T20:16:24;-1.50;99.90
2495;DHT22;1258;48.336;14.322;2023-12-20T20:18:51;-1.50;99.90
2495;DHT22;1258;48.336;14.322;2023-12-20T20:21:19;-1.40;99.90
2495;DHT22;1258;48.336;14.322;2023-12-20T20:23:46;-1.50;99.90
2495;DHT22;1258;48.336;14.322;2023-12-20T20:26:13;-1.40;99.90
2495;DHT22;1258;48.336;14.322;2023-12-20T20:28:40;-1.40;99.90
2495;DHT22;1258;48.336;14.322;2023-12-20T20:31:07;-1.40;99.90
2495;DHT22;1258;48.336;14.322;2023-12-20T20:33:34;-1.40;99.90
2495;DHT22;1258;48.336;14.322;2023-12-20T20:36:00;-1.30;99.90
2495;DHT22;1258;48.336;14.322;2023-12-20T20:38:30;-1.40;99.90
2495;DHT22;1258;48.336;14.322;2023-12-20T20:40:57;-1.30;99.90
2495;DHT22;1258;48.336;14.322;2023-12-20T20:43:26;-1.30;99.90
2495;DHT22;1258;48.336;14.322;2023-12-20T20:45:53;-1.30;99.90
2495;DHT22;1258;48.336;14.322;2023-12-20T20:48:20;-1.30;99.90
2495;DHT22;1258;48.336;14.322;2023-12-20T20:50:47;-1.30;99.90
2495;DHT22;1258;48.336;14.322;2023-12-20T20:53:14;-1.20;99.90
2495;DHT22;1258;48.336;14.322;2023-12-20T20:55:42;-1.20;99.90
2495;DHT22;1258;48.336;14.322;2023-12-20T20:58:09;-1.20;99.90
2495;DHT22;1258;48.336;14.322;2023-12-20T21:00:36;-1.20;99.90
2495;DHT22;1258;48.336;14.322;2023-12-20T21:03:03;-1.20;99.90
2495;DHT22;1258;48.336;14.322;2023-12-20T21:05:30;-1.20;99.90
2495;DHT22;1258;48.336;14.322;2023-12-20T21:07:57;-1.20;99.90
2495;DHT22;1258;48.336;14.322;2023-12-20T21:10:23;-1.20;99.90
2495;DHT22;1258;48.336;14.322;2023-12-20T21:12:53;-1.10;99.90
2495;DHT22;1258;48.336;14.322;2023-12-20T21:15:20;-1.10;99.90
2495;DHT22;1258;48.336;14.322;2023-12-20T21:17:46;-1.10;99.90
2495;DHT22;1258;48.336;14.322;2023-12-20T21:20:13;-1.10;99.90
2495;DHT22;1258;48.336;14.322;2023-12-20T21:22:41;-1.10;99.90
2495;DHT22;1258;48.336;14.322;2023-12-20T21:25:08;-1.10;99.90
2495;DHT22;1258;48.336;14.322;2023-12-20T21:27:35;-1.20;99.90
2495;DHT22;1258;48.336;14.322;2023-12-20T21:30:06;-1.10;99.90
2495;DHT22;1258;48.336;14.322;2023-12-20T21:32:35;-1.20;99.90
2495;DHT22;1258;48.336;14.322;2023-12-20T21:35:02;-1.10;99.90
2495;DHT22;1258;48.336;14.322;2023-12-20T21:37:30;-1.20;99.90
2495;DHT22;1258;48.336;14.322;2023-12-20T21:39:57;-1.20;99.90
2495;DHT22;1258;48.336;14.322;2023-12-20T21:42:24;-1.20;99.90
2495;DHT22;1258;48.336;14.322;2023-12-20T21:44:51;-1.20;99.90
2495;DHT22;1258;48.336;14.322;2023-12-20T21:47:19;-1.20;99.90
2495;DHT22;1258;48.336;14.322;2023-12-20T21:49:46;-1.20;99.90
2495;DHT22;1258;48.336;14.322;2023-12-20T21:52:13;-1.20;99.90
2495;DHT22;1258;48.336;14.322;2023-12-20T21:54:40;-1.10;99.90
2495;DHT22;1258;48.336;14.322;2023-12-20T21:57:07;-1.10;99.90
2495;DHT22;1258;48.336;14.322;2023-12-20T21:59:33;-1.10;99.90
2495;DHT22;1258;48.336;14.322;2023-12-20T22:02:00;-1.10;99.90
2495;DHT22;1258;48.336;14.322;2023-12-20T22:04:29;-1.10;99.90
2495;DHT22;1258;48.336;14.322;2023-12-20T22:06:55;-1.20;99.90
2495;DHT22;1258;48.336;14.322;2023-12-20T22:09:22;-1.10;99.90
2495;DHT22;1258;48.336;14.322;2023-12-20T22:11:49;-1.10;99.90
2495;DHT22;1258;48.336;14.322;2023-12-20T22:14:16;-1.10;99.90
2495;DHT22;1258;48.336;14.322;2023-12-20T22:16:43;-1.10;99.90
2495;DHT22;1258;48.336;14.322;2023-12-20T22:19:10;-1.10;99.90
2495;DHT22;1258;48.336;14.322;2023-12-20T22:21:38;-1.10;99.90
2495;DHT22;1258;48.336;14.322;2023-12-20T22:24:05;-1.10;99.90
2495;DHT22;1258;48.336;14.322;2023-12-20T22:26:32;-1.10;99.90
2495;DHT22;1258;48.336;14.322;2023-12-20T22:28:59;-1.10;99.90
2495;DHT22;1258;48.336;14.322;2023-12-20T22:31:26;-1.20;99.90
2495;DHT22;1258;48.336;14.322;2023-12-20T22:33:53;-1.20;99.90
2495;DHT22;1258;48.336;14.322;2023-12-20T22:36:20;-1.20;99.90
2495;DHT22;1258;48.336;14.322;2023-12-20T22:38:48;-1.20;99.90
2495;DHT22;1258;48.336;14.322;2023-12-20T22:41:16;-1.20;99.90
2495;DHT22;1258;48.336;14.322;2023-12-20T22:43:43;-1.20;99.90
2495;DHT22;1258;48.336;14.322;2023-12-20T22:46:10;-1.20;99.90
2495;DHT22;1258;48.336;14.322;2023-12-20T22:48:38;-1.20;99.90
2495;DHT22;1258;48.336;14.322;2023-12-20T22:51:05;-1.10;99.90
2495;DHT22;1258;48.336;14.322;2023-12-20T22:53:33;-1.10;99.90
2495;DHT22;1258;48.336;14.322;2023-12-20T22:56:01;-1.10;99.90
2495;DHT22;1258;48.336;14.322;2023-12-20T22:58:28;-1.10;99.90
2495;DHT22;1258;48.336;14.322;2023-12-20T23:00:55;-1.00;99.90
2495;DHT22;1258;48.336;14.322;2023-12-20T23:03:21;-1.10;99.90
2495;DHT22;1258;48.336;14.322;2023-12-20T23:05:50;-1.10;99.90
2495;DHT22;1258;48.336;14.322;2023-12-20T23:08:17;-1.10;99.90
2495;DHT22;1258;48.336;14.322;2023-12-20T23:10:44;-1.00;99.90
2495;DHT22;1258;48.336;14.322;2023-12-20T23:13:12;-1.10;99.90
2495;DHT22;1258;48.336;14.322;2023-12-20T23:15:39;-1.10;99.90
2495;DHT22;1258;48.336;14.322;2023-12-20T23:18:06;-1.10;99.90
2495;DHT22;1258;48.336;14.322;2023-12-20T23:20:33;-1.10;99.90